Time;durP1;ratioP1;P1;durP2;ratioP2;P2;SDS_P1;SDS_P2;PMS_P1;PMS_P2;Temp;Humidity;BMP_temperature;BMP_pressure;BME280_temperature;BME280_humidity;BME280_pressure;Samples;Min_cycle;Max_cycle;Signal;HPM_P1;HPM_P2
2022/01/23 00:00:04;;;;;;;9.93;5.50;;;;;;;28.61;58.06;101016.28;5077866;27;70536;-36
2022/01/23 00:02:39;;;;;;;15.88;6.03;;;;;;;28.66;58.95;101020.03;5080755;27;66512;-37
2022/01/23 00:05:09;;;;;;;11.68;6.47;;;;;;;28.72;59.58;101023.81;5081757;27;69956;-36
2022/01/23 00:07:41;;;;;;;12.57;6.97;;;;;;;28.75;59.56;101031.50;5077819;27;65602;-36
2022/01/23 00:10:12;;;;;;;11.00;7.90;;;;;;;28.78;59.76;101033.81;5079131;27;70181;-36
2022/01/23 00:12:53;;;;;;;11.18;8.13;;;;;;;28.84;60.42;101035.69;5082369;27;65934;-36
2022/01/23 00:18:12;;;;;;;28.25;12.27;;;;;;;28.92;61.40;101034.69;5075838;28;66487;-36
2022/01/23 00:20:42;;;;;;;30.27;14.05;;;;;;;28.94;61.71;101036.13;5074919;28;70244;-36
2022/01/23 00:23:30;;;;;;;29.42;13.95;;;;;;;28.96;61.88;101042.16;5076786;27;66562;-36
2022/01/23 00:31:39;;;;;;;16.30;8.20;;;;;;;29.01;62.81;101044.28;5076795;27;70307;-36
2022/01/23 00:34:09;;;;;;;10.50;6.30;;;;;;;28.98;63.42;101063.59;5079031;27;65998;-36
2022/01/23 00:36:39;;;;;;;12.50;6.05;;;;;;;28.94;62.95;101046.09;5074498;27;69332;-36
2022/01/23 00:39:09;;;;;;;19.05;6.50;;;;;;;28.96;63.35;101052.13;5076243;27;66504;-35
2022/01/23 00:41:40;;;;;;;10.60;6.43;;;;;;;28.94;63.99;101049.63;5070295;27;70269;-43
2022/01/23 00:44:11;;;;;;;18.45;6.50;;;;;;;28.98;63.80;101066.28;5078566;27;65090;-37
2022/01/23 00:46:49;;;;;;;14.95;6.40;;;;;;;28.96;64.03;101061.06;5081379;27;70720;-37
2022/01/23 00:49:25;;;;;;;12.88;6.28;;;;;;;29.02;64.24;101070.22;5077576;27;66485;-37
2022/01/23 00:51:57;;;;;;;12.93;7.07;;;;;;;29.06;63.79;101065.28;5078558;27;69229;-37
2022/01/23 00:54:28;;;;;;;20.30;6.72;;;;;;;29.07;63.78;101080.47;5073992;27;65562;-38
2022/01/23 00:56:58;;;;;;;17.95;6.78;;;;;;;29.06;64.40;101079.63;5076281;27;70338;-36
2022/01/23 00:59:28;;;;;;;20.90;6.53;;;;;;;29.06;64.18;101095.84;5072517;27;66661;-36
2022/01/23 01:01:58;;;;;;;17.52;6.93;;;;;;;29.05;63.47;101098.72;5078104;27;70070;-37
2022/01/23 01:04:29;;;;;;;16.23;7.22;;;;;;;29.05;63.49;101102.25;5077251;27;66497;-36
2022/01/23 01:06:59;;;;;;;13.10;6.07;;;;;;;29.05;63.26;101110.34;5075140;27;69547;-36
2022/01/23 01:09:31;;;;;;;14.45;8.80;;;;;;;29.02;63.39;101110.75;5091451;27;66389;-36
2022/01/23 01:12:05;;;;;;;20.52;10.57;;;;;;;29.04;63.24;101118.69;5065069;27;70034;-37
2022/01/23 01:15:01;;;;;;;19.67;10.82;;;;;;;29.02;63.04;101118.84;5074916;27;66721;-36
2022/01/23 01:30:14;;;;;;;19.15;9.95;;;;;;;29.04;63.39;101121.38;5062928;28;69610;-36
2022/01/23 01:31:55;;;;;;;23.25;7.10;;;;;;;29.11;63.79;101136.59;5078871;27;66111;-36
2022/01/23 01:34:51;;;;;;;20.10;6.20;;;;;;;29.13;63.86;101137.19;5074033;27;69347;-37
2022/01/23 01:37:22;;;;;;;11.05;6.05;;;;;;;29.18;63.59;101136.59;5078498;27;67465;-36
2022/01/23 01:39:52;;;;;;;23.83;7.45;;;;;;;29.23;63.45;101142.22;5073744;27;70233;-36
2022/01/23 01:42:23;;;;;;;8.00;6.20;;;;;;;29.24;63.60;101135.78;5077233;27;66099;-37
2022/01/23 01:44:53;;;;;;;16.33;7.15;;;;;;;29.27;63.80;101135.38;5084112;27;70182;-36
2022/01/23 01:47:23;;;;;;;15.75;6.65;;;;;;;29.27;64.03;101135.38;5056661;28;66111;-36
2022/01/23 01:50:06;;;;;;;11.52;6.60;;;;;;;29.30;63.53;101134.97;5076001;27;69916;-37
2022/01/23 01:52:37;;;;;;;17.80;7.93;;;;;;;29.30;64.03;101134.97;5078675;27;65693;-36
2022/01/23 01:55:18;;;;;;;15.32;8.27;;;;;;;29.30;63.42;101136.84;5078133;27;70506;-36
2022/01/23 01:57:55;;;;;;;21.02;7.68;;;;;;;29.35;63.24;101153.28;5094208;27;66440;-36
2022/01/23 02:00:56;;;;;;;20.00;8.30;;;;;;;29.37;63.50;101148.50;5077275;27;70313;-36
2022/01/23 02:09:14;;;;;;;14.32;8.32;;;;;;;29.36;63.26;101150.38;5081457;27;65488;-37
2022/01/23 02:14:46;;;;;;;27.00;9.48;;;;;;;29.46;64.11;101154.56;5070788;27;65787;-37
2022/01/23 02:17:58;;;;;;;16.90;8.85;;;;;;;29.43;64.40;101152.25;5074652;27;70623;-36
2022/01/23 02:57:38;;;;;;;13.82;8.15;;;;;;;29.72;63.06;101141.09;5076700;27;69048;-37
2022/01/23 03:00:17;;;;;;;15.55;8.88;;;;;;;29.77;62.48;101132.38;5074387;27;66835;-38
2022/01/23 03:03:11;;;;;;;23.15;9.70;;;;;;;29.77;62.85;101130.50;5068411;27;69974;-38
2022/01/23 03:28:35;;;;;;;20.90;10.20;;;;;;;30.13;63.44;101104.09;5075532;27;66411;-36
2022/01/23 03:33:39;;;;;;;27.08;9.75;;;;;;;30.25;62.99;101097.84;5083348;27;66349;-36
2022/01/23 03:36:09;;;;;;;23.30;10.23;;;;;;;30.29;63.21;101095.56;5078826;27;70493;-36
2022/01/23 03:38:40;;;;;;;22.40;11.48;;;;;;;30.33;63.61;101079.72;5074039;27;65236;-37
2022/01/23 03:41:10;;;;;;;20.67;10.13;;;;;;;30.36;63.28;101084.72;5076563;27;70121;-38
2022/01/23 03:43:41;;;;;;;37.50;11.45;;;;;;;30.36;62.88;101090.94;5078399;27;65416;-36
2022/01/23 03:52:09;;;;;;;18.30;10.98;;;;;;;30.48;62.56;101078.44;5071630;27;69815;-36
2022/01/23 03:54:43;;;;;;;18.35;9.82;;;;;;;30.50;62.02;101078.22;5070989;27;66087;-36
2022/01/23 03:57:13;;;;;;;16.17;10.90;;;;;;;30.49;61.65;101068.44;5056880;28;69604;-36
2022/01/23 03:59:44;;;;;;;16.00;10.15;;;;;;;30.56;61.38;101068.41;5078290;27;66668;-36
2022/01/23 04:02:14;;;;;;;27.55;11.43;;;;;;;30.58;61.33;101061.72;5076036;27;70681;-36
2022/01/23 04:04:45;;;;;;;15.52;9.90;;;;;;;30.58;61.25;101055.50;5073026;27;65681;-36
2022/01/23 04:07:24;;;;;;;14.55;10.90;;;;;;;30.64;60.14;101057.34;5078286;27;70707;-36
2022/01/23 04:09:55;;;;;;;36.40;11.68;;;;;;;30.61;59.27;101041.53;5069457;27;66529;-36
2022/01/23 04:15:45;;;;;;;37.25;11.32;;;;;;;30.67;59.42;101038.81;5076783;27;66536;-36
2022/01/23 04:32:19;;;;;;;29.38;10.45;;;;;;;31.11;61.43;101006.50;5074366;27;66197;-37
2022/01/23 04:46:09;;;;;;;20.38;9.23;;;;;;;31.34;59.80;101000.47;5057290;28;69013;-37
2022/01/23 05:00:12;;;;;;;22.05;11.18;;;;;;;31.33;59.25;100977.16;5078873;27;65783;-37
2022/01/23 05:06:11;;;;;;;20.38;10.10;;;;;;;31.31;59.15;100963.78;5079655;27;65818;-36
2022/01/23 05:09:02;;;;;;;18.92;9.95;;;;;;;31.35;58.81;100964.22;5079104;27;69950;-36
2022/01/23 05:11:37;;;;;;;15.85;10.13;;;;;;;31.34;58.65;100957.09;5077174;27;66544;-36
2022/01/23 05:14:13;;;;;;;15.07;10.32;;;;;;;31.38;58.96;100961.09;5072365;27;69951;-36
2022/01/23 05:16:43;;;;;;;28.77;11.25;;;;;;;31.38;58.70;100950.25;5079874;27;65409;-36
2022/01/23 05:19:14;;;;;;;23.98;11.00;;;;;;;31.39;58.55;100952.72;5078390;27;70393;-35
2022/01/23 05:24:23;;;;;;;10.85;9.70;;;;;;;31.40;58.85;100950.84;5077631;27;70222;-35
2022/01/23 05:27:01;;;;;;;17.42;9.95;;;;;;;31.39;59.17;100938.34;5073117;27;66163;-36
2022/01/23 05:29:32;;;;;;;15.52;9.82;;;;;;;31.41;59.91;100930.00;5059226;28;69329;-36
2022/01/23 05:32:04;;;;;;;24.67;9.43;;;;;;;31.22;59.91;100900.09;5077565;27;65948;-38
2022/01/23 05:34:34;;;;;;;16.90;9.05;;;;;;;31.34;58.40;100919.16;5077925;27;69659;-35
2022/01/23 05:37:16;;;;;;;17.85;7.68;;;;;;;31.24;57.44;100913.44;5073042;27;65716;-36
2022/01/23 05:39:49;;;;;;;16.85;6.20;;;;;;;31.15;56.71;100911.00;5071539;27;69177;-37
2022/01/23 05:42:20;;;;;;;5.68;5.18;;;;;;;31.08;56.49;100896.66;5068959;27;66545;-35
2022/01/23 05:44:50;;;;;;;9.15;4.95;;;;;;;30.98;55.73;100890.94;5066234;27;69717;-35
2022/01/23 05:47:21;;;;;;;13.00;4.47;;;;;;;30.95;55.08;100883.22;5049801;28;65980;-35
2022/01/23 05:49:59;;;;;;;15.68;4.10;;;;;;;30.91;54.43;100876.59;5075193;27;70188;-36
2022/01/23 05:52:54;;;;;;;15.80;3.75;;;;;;;30.81;54.11;100876.25;5076168;27;66222;-35
2022/01/23 05:55:41;;;;;;;7.20;2.97;;;;;;;30.75;53.53;100866.28;5071590;27;69468;-37
2022/01/23 05:58:31;;;;;;;6.05;3.22;;;;;;;30.65;52.61;100855.97;5078411;27;65566;-36
2022/01/23 06:01:02;;;;;;;6.20;2.38;;;;;;;30.59;51.69;100849.53;5058752;27;69056;-36
2022/01/23 06:03:34;;;;;;;8.65;2.58;;;;;;;30.57;51.04;100848.91;5075113;27;66047;-35
2022/01/23 06:06:10;;;;;;;6.15;2.00;;;;;;;30.53;50.63;100847.69;5051596;27;70286;-35
2022/01/23 06:08:41;;;;;;;3.97;2.20;;;;;;;30.46;49.76;100836.09;5055789;28;66177;-36
2022/01/23 06:11:12;;;;;;;4.30;1.83;;;;;;;30.38;49.83;100828.22;5076789;27;70349;-36
2022/01/23 06:13:43;;;;;;;5.28;1.60;;;;;;;30.40;48.39;100832.38;5078915;27;66460;-35
2022/01/23 06:16:15;;;;;;;2.08;1.65;;;;;;;30.34;48.98;100830.56;5070625;27;70137;-35
2022/01/23 06:19:05;;;;;;;1.50;1.30;;;;;;;30.27;48.13;100818.94;5076959;27;65216;-35
2022/01/23 06:22:02;;;;;;;2.70;1.40;;;;;;;30.24;47.91;100822.91;5070657;27;70019;-36
2022/01/23 06:25:04;;;;;;;1.20;1.00;;;;;;;30.17;46.90;100816.69;5072958;27;66627;-36
2022/01/23 06:27:52;;;;;;;2.28;1.35;;;;;;;30.13;47.19;100804.63;5076141;27;70505;-35
2022/01/23 06:30:23;;;;;;;2.00;1.40;;;;;;;30.06;46.86;100793.00;5059226;28;65367;-36
2022/01/23 06:32:53;;;;;;;2.55;1.42;;;;;;;30.06;46.20;100795.69;5077044;27;69799;-35
2022/01/23 06:35:24;;;;;;;1.00;1.00;;;;;;;30.02;45.90;100789.91;5077534;27;65770;-35
2022/01/23 06:37:55;;;;;;;1.67;1.15;;;;;;;29.96;46.04;100781.84;5060484;28;69818;-35
2022/01/23 06:40:25;;;;;;;1.88;1.30;;;;;;;29.92;45.28;100775.19;5060913;27;65715;-36
2022/01/23 06:43:15;;;;;;;1.05;0.82;;;;;;;29.90;45.22;100771.88;5071956;27;70831;-36
2022/01/23 06:46:07;;;;;;;1.20;1.10;;;;;;;29.81;44.85;100774.84;5073528;27;66105;-35
2022/01/23 06:48:38;;;;;;;2.97;1.58;;;;;;;29.80;44.83;100773.16;5068260;27;70816;-36
2022/01/23 06:51:09;;;;;;;1.63;1.10;;;;;;;29.78;44.77;100763.59;5072271;27;65090;-35
2022/01/23 06:53:42;;;;;;;1.40;1.20;;;;;;;29.79;45.41;100758.00;5044940;28;69223;-35
2022/01/23 06:56:14;;;;;;;0.85;0.85;;;;;;;29.79;44.79;100749.88;5074862;27;66334;-36
2022/01/23 06:58:45;;;;;;;1.30;1.17;;;;;;;29.81;45.15;100747.81;5074588;27;70426;-35
2022/01/23 07:01:16;;;;;;;1.23;0.90;;;;;;;29.84;45.43;100746.53;5079290;27;66432;-35
2022/01/23 07:03:56;;;;;;;2.22;1.08;;;;;;;29.86;45.01;100740.91;5073668;27;70191;-35
2022/01/23 07:06:45;;;;;;;1.30;1.10;;;;;;;29.86;45.26;100732.78;5058590;27;66171;-35
2022/01/23 07:09:38;;;;;;;1.23;1.10;;;;;;;29.90;44.57;100734.84;5082068;27;70127;-35
2022/01/23 07:12:15;;;;;;;1.17;1.10;;;;;;;29.90;44.93;100728.63;5086107;27;65657;-36
2022/01/23 07:15:09;;;;;;;0.80;0.80;;;;;;;29.91;44.76;100727.56;5054720;27;69980;-37
2022/01/23 07:17:58;;;;;;;1.13;0.80;;;;;;;29.92;44.15;100726.50;5077994;27;66444;-35
2022/01/23 07:20:34;;;;;;;1.70;1.60;;;;;;;29.95;46.08;100726.06;5078050;27;69605;-35
2022/01/23 07:23:22;;;;;;;2.10;1.90;;;;;;;29.91;45.73;100714.03;5078597;27;66316;-35
2022/01/23 07:25:53;;;;;;;3.72;1.80;;;;;;;29.96;45.41;100722.34;5066439;27;69935;-36
2022/01/23 07:28:34;;;;;;;1.63;1.52;;;;;;;29.97;45.80;100715.88;5076921;27;66278;-35
2022/01/23 07:31:06;;;;;;;3.90;1.35;;;;;;;30.00;45.45;100707.31;5079644;27;69396;-35
2022/01/23 07:33:38;;;;;;;1.77;1.42;;;;;;;30.06;44.68;100722.66;5051832;27;65317;-35
2022/01/23 07:36:08;;;;;;;1.67;1.40;;;;;;;30.06;44.67;100710.00;5072498;27;69566;-36
2022/01/23 07:38:39;;;;;;;2.45;1.27;;;;;;;30.13;44.74;100715.34;5072094;27;66411;-35
2022/01/23 07:41:26;;;;;;;1.70;1.60;;;;;;;30.09;44.53;100700.63;5053349;28;68932;-36
2022/01/23 07:44:07;;;;;;;3.85;0.98;;;;;;;30.12;44.34;100699.34;5070473;27;65699;-35
2022/01/23 07:46:55;;;;;;;1.30;1.20;;;;;;;30.18;44.26;100704.69;5072133;27;69297;-36
2022/01/23 07:49:40;;;;;;;1.92;1.10;;;;;;;30.21;43.40;100709.66;5071651;27;65332;-37
2022/01/23 07:52:32;;;;;;;1.50;0.98;;;;;;;30.22;43.36;100705.94;5077750;27;69956;-35
2022/01/23 07:55:26;;;;;;;10.57;1.13;;;;;;;30.22;43.26;100699.69;5076515;27;65799;-36
2022/01/23 07:58:17;;;;;;;1.98;1.27;;;;;;;30.26;43.36;100706.34;5072876;27;69646;-35
2022/01/23 08:01:08;;;;;;;4.68;0.90;;;;;;;30.29;42.76;100700.50;5078542;27;66891;-35
2022/01/23 08:03:58;;;;;;;2.03;0.95;;;;;;;30.32;43.38;100699.22;5076526;27;69907;-35
2022/01/23 08:06:32;;;;;;;5.45;2.03;;;;;;;30.34;44.70;100691.69;5068094;27;65723;-36
2022/01/23 08:09:21;;;;;;;9.60;1.65;;;;;;;30.46;45.84;100695.34;5076653;27;70030;-36
2022/01/23 08:11:51;;;;;;;9.07;1.55;;;;;;;30.60;45.63;100696.88;5070705;27;65252;-35
2022/01/23 08:14:21;;;;;;;13.77;1.60;;;;;;;30.72;46.48;100689.66;5080713;27;69414;-36
2022/01/23 08:16:51;;;;;;;9.23;1.58;;;;;;;30.87;47.12;100696.63;5077259;27;66210;-37
2022/01/23 08:19:22;;;;;;;241.90;20.42;;;;;;;31.00;49.17;100685.66;5079412;27;70328;-36
2022/01/23 08:21:52;;;;;;;93.80;9.65;;;;;;;31.15;51.58;100691.53;5065973;27;66714;-36
2022/01/23 08:24:23;;;;;;;90.43;11.10;;;;;;;31.30;51.70;100685.72;5079056;27;69214;-35
2022/01/23 08:26:53;;;;;;;87.85;10.90;;;;;;;31.43;51.94;100684.75;5084474;27;65740;-35
2022/01/23 08:29:24;;;;;;;67.95;9.30;;;;;;;31.52;52.45;100677.94;5079611;27;70368;-37
2022/01/23 08:31:54;;;;;;;195.05;16.95;;;;;;;31.63;54.31;100689.06;5081204;27;66342;-35
2022/01/23 08:34:24;;;;;;;88.88;12.60;;;;;;;31.73;53.54;100682.03;5078912;27;69899;-35
2022/01/23 08:36:55;;;;;;;58.25;23.20;;;;;;;31.87;53.84;100685.34;5084644;27;64592;-36
2022/01/23 08:39:26;;;;;;;41.33;18.25;;;;;;;31.95;53.82;100682.34;5080829;27;70408;-35
2022/01/23 08:41:56;;;;;;;168.85;22.55;;;;;;;32.03;54.37;100690.16;5082588;27;65217;-35
2022/01/23 08:44:29;;;;;;;95.00;19.25;;;;;;;31.99;54.83;100661.84;5081202;27;70273;-36
2022/01/23 08:47:06;;;;;;;91.13;16.40;;;;;;;32.25;54.96;100687.72;5078709;27;66082;-36
2022/01/23 08:49:44;;;;;;;73.82;15.13;;;;;;;32.29;54.94;100685.38;5078392;27;69634;-35
2022/01/23 08:52:21;;;;;;;43.15;13.13;;;;;;;32.45;54.94;100691.97;5077335;27;66086;-36
2022/01/23 08:54:56;;;;;;;34.03;12.02;;;;;;;32.51;54.69;100690.22;5081550;27;70487;-37
2022/01/23 08:57:26;;;;;;;38.70;10.20;;;;;;;32.55;55.04;100683.28;5083620;27;64032;-36
2022/01/23 09:00:18;;;;;;;19.67;9.68;;;;;;;32.58;54.96;100688.25;5081064;27;70527;-37
2022/01/23 09:02:49;;;;;;;;;;;;;;;32.46;55.38;100705.34;5073892;27;66283;-36
2022/01/23 09:05:20;;;;;;;11.80;8.55;;;;;;;32.69;54.51;100698.28;5081393;27;70239;-36
2022/01/23 09:07:50;;;;;;;18.20;9.07;;;;;;;32.73;55.17;100694.00;5078598;27;65328;-36
2022/01/23 09:10:26;;;;;;;16.58;9.43;;;;;;;32.76;55.77;100688.09;5075885;27;69698;-36
2022/01/23 09:13:28;;;;;;;72.15;12.02;;;;;;;32.79;55.18;100697.66;5045413;27;66031;-37
2022/01/23 09:15:59;;;;;;;;;;;;;;;32.65;56.65;100691.66;5083421;27;70152;-35
2022/01/23 09:18:29;;;;;;;52.28;11.18;;;;;;;32.86;55.59;100692.94;5082052;27;66584;-34
2022/01/23 09:20:59;;;;;;;64.88;11.07;;;;;;;32.89;55.33;100698.72;5072291;27;69711;-37
2022/01/23 09:23:31;;;;;;;37.15;9.93;;;;;;;32.88;55.20;100697.06;5073174;27;67748;-35
2022/01/23 09:26:10;;;;;;;42.42;10.00;;;;;;;32.73;55.56;100675.00;5076418;27;70012;-36
2022/01/23 09:28:43;;;;;;;31.25;8.70;;;;;;;32.87;54.96;100705.44;5074493;27;66142;-36
2022/01/23 09:31:28;;;;;;;23.80;8.70;;;;;;;32.95;55.45;100713.22;5073870;27;70115;-37
2022/01/23 09:33:59;;;;;;;26.67;7.65;;;;;;;32.93;55.57;100716.22;5082779;27;66218;-37
2022/01/23 09:36:29;;;;;;;26.02;7.53;;;;;;;32.91;56.04;100721.03;5078152;27;70733;-37
2022/01/23 09:38:59;;;;;;;15.85;7.35;;;;;;;32.92;56.03;100714.53;5082406;27;65848;-36
2022/01/23 09:41:56;;;;;;;10.73;6.15;;;;;;;32.90;56.72;100711.25;5078544;27;70535;-36
2022/01/23 09:44:30;;;;;;;14.18;7.70;;;;;;;32.92;56.33;100719.97;5078460;27;65966;-37
2022/01/23 09:47:01;;;;;;;24.65;8.02;;;;;;;32.96;56.20;100720.34;5074607;27;70233;-37
2022/01/23 09:49:32;;;;;;;20.75;7.55;;;;;;;32.91;56.27;100712.91;5075491;27;65720;-37
2022/01/23 09:52:04;;;;;;;15.80;7.57;;;;;;;32.94;56.09;100720.56;5077094;27;71065;-36
2022/01/23 09:54:36;;;;;;;29.27;7.82;;;;;;;32.84;55.80;100703.22;5077169;27;64955;-36
2022/01/23 09:57:09;;;;;;;89.22;10.23;;;;;;;32.94;55.86;100720.56;5077854;27;70365;-37
2022/01/23 09:59:40;;;;;;;48.85;8.45;;;;;;;32.92;56.05;100722.69;5077671;27;66487;-36
2022/01/23 10:02:10;;;;;;;19.27;7.30;;;;;;;32.93;55.79;100726.22;5076113;27;70513;-37
2022/01/23 10:04:41;;;;;;;23.17;7.00;;;;;;;32.89;55.50;100730.50;5077936;27;65846;-35
2022/01/23 10:07:13;;;;;;;11.20;6.97;;;;;;;32.85;55.54;100722.00;5076746;27;70543;-37
2022/01/23 10:09:46;;;;;;;10.77;7.05;;;;;;;32.85;55.66;100735.59;5068378;27;66371;-36
2022/01/23 10:12:16;;;;;;;17.20;7.43;;;;;;;32.83;55.85;100736.88;5077044;27;70392;-36
2022/01/23 10:14:47;;;;;;;14.48;6.30;;;;;;;32.81;56.04;100737.09;5078876;27;66267;-36
2022/01/23 10:17:17;;;;;;;27.27;7.10;;;;;;;32.80;56.01;100749.03;5078607;27;69505;-36
2022/01/23 10:19:48;;;;;;;57.28;8.70;;;;;;;32.77;55.92;100737.84;5078039;27;65443;-36
2022/01/23 10:22:18;;;;;;;41.20;8.15;;;;;;;32.74;55.78;100750.00;5075707;27;70165;-37
2022/01/23 10:24:49;;;;;;;42.78;7.90;;;;;;;32.68;55.65;100742.78;5080912;27;66685;-36
2022/01/23 10:27:22;;;;;;;27.25;7.40;;;;;;;32.68;55.82;100745.50;5081737;27;69559;-37
2022/01/23 10:29:53;;;;;;;19.55;8.30;;;;;;;32.62;55.89;100738.28;5077655;27;66576;-37
2022/01/23 10:32:24;;;;;;;33.63;8.48;;;;;;;32.65;55.90;100751.41;5072045;27;69808;-35
2022/01/23 10:35:01;;;;;;;16.80;7.57;;;;;;;32.44;55.82;100721.03;5076273;27;66117;-38
2022/01/23 10:37:37;;;;;;;20.15;8.40;;;;;;;32.42;55.97;100717.69;5077861;27;69458;-36
2022/01/23 10:40:34;;;;;;;40.17;18.65;;;;;;;32.45;56.29;100725.38;5078888;27;66123;-35
2022/01/23 10:49:03;;;;;;;57.15;21.15;;;;;;;32.53;56.00;100764.16;5078721;27;69771;-36
2022/01/23 10:51:38;;;;;;;43.92;18.33;;;;;;;32.32;56.03;100736.47;5079073;27;65487;-36
2022/01/23 10:54:17;;;;;;;43.08;15.90;;;;;;;32.43;56.13;100773.69;5077261;27;69915;-35
2022/01/23 10:56:53;;;;;;;33.90;15.15;;;;;;;32.44;56.15;100777.22;5082964;27;65804;-36
2022/01/23 10:59:24;;;;;;;20.50;13.25;;;;;;;32.38;56.10;100768.13;5076339;27;70579;-35
2022/01/23 11:02:04;;;;;;;20.90;10.73;;;;;;;32.37;56.36;100777.28;5079875;27;66422;-36
2022/01/23 11:04:56;;;;;;;19.58;10.50;;;;;;;32.34;56.28;100780.47;5090591;27;70589;-36
2022/01/23 11:07:28;;;;;;;18.73;10.25;;;;;;;32.31;56.90;100777.41;5068920;27;66633;-36
2022/01/23 11:10:12;;;;;;;16.92;8.95;;;;;;;32.31;57.03;100778.22;5081861;27;69009;-36
2022/01/23 11:18:38;;;;;;;11.15;7.00;;;;;;;32.19;56.90;100785.53;5080238;27;65415;-36
2022/01/23 11:21:17;;;;;;;9.38;6.45;;;;;;;31.98;56.97;100757.88;5074225;27;69261;-36
2022/01/23 11:24:08;;;;;;;9.15;6.00;;;;;;;32.11;56.85;100785.84;5077978;27;66028;-36
2022/01/23 11:26:38;;;;;;;19.35;6.85;;;;;;;32.10;56.79;100787.75;5080669;27;69231;-36
2022/01/23 11:29:10;;;;;;;11.27;6.03;;;;;;;31.93;57.26;100760.44;5080417;27;66646;-37
2022/01/23 11:31:41;;;;;;;;;;;;;;;31.82;58.06;100780.19;5077022;27;68106;-36
2022/01/23 11:34:14;;;;;;;10.75;5.90;;;;;;;31.99;57.42;100786.66;5080270;27;66205;-36
2022/01/23 11:36:44;;;;;;;12.57;5.10;;;;;;;31.98;57.11;100785.00;5080713;27;69318;-36
2022/01/23 11:39:26;;;;;;;11.95;5.32;;;;;;;31.90;57.52;100790.72;5070988;27;65247;-35
2022/01/23 11:56:40;;;;;;;13.95;6.10;;;;;;;31.58;60.14;100800.91;5072680;27;66444;-36
2022/01/23 11:59:41;;;;;;;17.17;7.20;;;;;;;31.60;59.38;100810.50;5043359;27;70719;-38
2022/01/23 12:02:12;;;;;;;10.88;7.32;;;;;;;31.67;59.76;100812.28;5079513;27;65720;-35
2022/01/23 12:05:03;;;;;;;16.45;8.45;;;;;;;31.65;59.47;100806.25;5080017;27;70156;-36
2022/01/23 12:07:35;;;;;;;11.90;8.07;;;;;;;31.66;59.58;100807.94;5084712;27;65826;-35
2022/01/23 12:10:52;;;;;;;9.20;7.43;;;;;;;31.61;60.06;100812.13;5078829;27;70146;-35
2022/01/23 12:16:20;;;;;;;9.73;6.57;;;;;;;31.66;60.06;100824.19;5078473;27;66154;-36
2022/01/23 12:19:14;;;;;;;;;;;;;;;31.42;60.52;100806.94;5070776;27;67395;-36
2022/01/23 12:21:46;;;;;;;10.73;5.28;;;;;;;31.65;59.36;100817.09;5078906;27;69343;-36
2022/01/23 12:24:18;;;;;;;8.13;5.35;;;;;;;31.65;59.54;100809.81;5076634;27;65381;-36
2022/01/23 12:26:49;;;;;;;15.35;6.30;;;;;;;31.66;59.75;100808.75;5079578;27;69703;-36
2022/01/23 12:29:35;;;;;;;6.03;5.53;;;;;;;31.67;59.54;100815.00;5078378;27;66218;-35
2022/01/23 12:32:16;;;;;;;9.05;5.57;;;;;;;31.65;59.47;100814.38;5076366;27;69842;-36
2022/01/23 12:34:49;;;;;;;15.13;5.95;;;;;;;31.61;59.31;100820.25;5072308;27;66411;-36
2022/01/23 12:37:20;;;;;;;10.02;5.35;;;;;;;31.60;59.54;100818.63;5080089;27;69667;-35
2022/01/23 12:40:27;;;;;;;8.40;5.60;;;;;;;31.54;59.75;100816.00;5076079;27;66216;-35
2022/01/23 12:43:09;;;;;;;14.15;6.45;;;;;;;31.57;59.22;100827.22;5077694;27;70128;-36
2022/01/23 12:46:02;;;;;;;14.02;6.72;;;;;;;31.57;59.11;100827.22;5073121;27;65762;-35
2022/01/23 12:48:36;;;;;;;20.75;9.73;;;;;;;31.60;58.35;100839.50;5079106;27;69964;-35
2022/01/23 12:51:28;;;;;;;16.05;9.80;;;;;;;31.45;58.76;100812.72;5079082;27;65759;-35
2022/01/23 12:53:58;;;;;;;9.50;7.63;;;;;;;31.55;58.90;100839.34;5076038;27;69819;-35
2022/01/23 12:56:41;;;;;;;14.98;6.53;;;;;;;31.43;59.08;100820.28;5076817;27;66805;-36
2022/01/23 12:59:25;;;;;;;;;;;;;;;31.32;59.43;100850.81;5077494;27;69120;-35
2022/01/23 13:02:03;;;;;;;5.63;5.10;;;;;;;31.52;58.91;100839.78;5071266;27;67331;-36
2022/01/23 13:04:40;;;;;;;8.70;5.22;;;;;;;31.40;58.97;100826.16;5076807;27;69375;-36
2022/01/23 13:07:41;;;;;;;10.68;5.25;;;;;;;31.46;59.49;100852.38;5075111;27;65835;-37
2022/01/23 13:18:32;;;;;;;7.50;5.43;;;;;;;31.52;58.72;100858.78;5074622;27;66373;-36
2022/01/23 13:33:03;;;;;;;11.38;5.80;;;;;;;31.43;59.19;100866.38;5071416;27;69035;-36
2022/01/23 13:35:29;;;;;;;10.02;5.47;;;;;;;31.41;58.66;100879.31;5067575;27;65165;-36
2022/01/23 13:38:02;;;;;;;13.93;5.15;;;;;;;31.42;59.55;100889.09;5067385;27;68994;-37
2022/01/23 13:40:39;;;;;;;21.55;6.05;;;;;;;31.43;59.34;100885.34;5070592;27;66921;-37
2022/01/23 14:00:14;;;;;;;20.73;5.65;;;;;;;31.44;59.99;100881.56;5075260;27;69597;-37
2022/01/23 14:02:53;;;;;;;16.13;5.05;;;;;;;31.47;59.66;100891.13;5069224;27;65621;-36
2022/01/23 14:05:33;;;;;;;9.50;4.47;;;;;;;31.47;60.18;100888.44;5053713;27;70228;-36
2022/01/23 14:08:05;;;;;;;12.95;5.03;;;;;;;31.28;60.36;100855.00;5073655;27;65708;-35
2022/01/23 14:10:39;;;;;;;16.45;4.55;;;;;;;31.44;60.04;100881.56;5065514;27;70140;-35
2022/01/23 14:13:41;;;;;;;8.20;5.18;;;;;;;31.46;60.07;100882.19;5074396;27;66013;-35
2022/01/23 14:16:14;;;;;;;8.95;5.18;;;;;;;31.44;59.14;100878.84;5074851;27;71629;-35
2022/01/23 14:18:46;;;;;;;7.80;4.75;;;;;;;31.41;58.74;100886.63;5070968;27;66465;-35
2022/01/23 14:21:19;;;;;;;7.45;4.63;;;;;;;31.38;58.87;100893.31;5074601;27;69292;-35
2022/01/23 14:23:56;;;;;;;8.05;3.67;;;;;;;31.36;58.84;100896.22;5067663;27;65091;-35
2022/01/23 14:26:30;;;;;;;11.80;4.40;;;;;;;31.33;58.76;100895.84;5052208;27;70382;-35
2022/01/23 14:29:25;;;;;;;7.65;3.75;;;;;;;31.30;58.67;100896.28;5077159;27;66568;-35
2022/01/23 14:32:20;;;;;;;12.00;4.18;;;;;;;31.20;58.37;100895.94;5076091;27;70399;-35
2022/01/23 14:35:08;;;;;;;8.25;3.80;;;;;;;30.97;59.18;100870.31;5070852;27;65249;-36
2022/01/23 14:37:41;;;;;;;16.52;4.25;;;;;;;31.15;58.32;100911.00;5070509;27;70381;-36
2022/01/23 14:40:27;;;;;;;11.90;3.40;;;;;;;30.95;55.12;100896.78;5069790;27;66320;-36
2022/01/23 14:43:10;;;;;;;12.27;2.40;;;;;;;30.86;54.65;100895.38;5070808;27;70420;-35
2022/01/23 14:45:44;;;;;;;9.55;2.63;;;;;;;30.53;55.31;100863.94;5069507;27;66044;-35
2022/01/23 14:48:17;;;;;;;6.40;1.80;;;;;;;30.64;54.97;100893.00;5071645;27;69225;-35
2022/01/23 14:50:53;;;;;;;4.93;1.90;;;;;;;30.54;53.95;100886.44;5069576;27;65567;-35
2022/01/23 14:53:25;;;;;;;2.65;1.55;;;;;;;30.45;53.34;100897.53;5072662;27;70427;-35
2022/01/23 14:55:59;;;;;;;7.82;1.30;;;;;;;30.16;53.12;100854.75;5069090;27;66205;-35
2022/01/23 14:58:33;;;;;;;6.53;1.10;;;;;;;30.14;52.84;100864.97;5073309;27;70700;-35
2022/01/23 15:01:07;;;;;;;9.80;1.10;;;;;;;30.20;51.83;100886.59;5070435;27;65636;-35
2022/01/23 15:03:42;;;;;;;7.40;0.82;;;;;;;30.12;51.94;100884.13;5068565;27;70250;-35
2022/01/23 15:06:30;;;;;;;4.97;0.85;;;;;;;30.03;51.38;100891.66;5071893;27;66035;-35
2022/01/23 15:09:10;;;;;;;7.30;0.90;;;;;;;29.79;49.97;100863.44;5065142;27;71037;-35
2022/01/23 15:11:40;;;;;;;4.82;0.70;;;;;;;29.93;50.54;100901.25;5049272;27;66273;-36
2022/01/23 15:14:11;;;;;;;7.68;1.23;;;;;;;29.85;49.73;100899.63;5070935;27;68906;-35
2022/01/23 15:16:43;;;;;;;1.88;0.70;;;;;;;29.80;50.38;100896.72;5069494;27;65353;-35
2022/01/23 15:19:13;;;;;;;4.22;0.70;;;;;;;29.73;49.38;100891.34;5071766;27;70322;-35
2022/01/23 15:21:44;;;;;;;0.93;0.43;;;;;;;29.70;49.52;100901.72;5073240;27;65799;-36
2022/01/23 15:24:16;;;;;;;4.25;0.50;;;;;;;29.62;49.01;100902.78;5071454;27;70080;-37
2022/01/23 15:26:46;;;;;;;0.63;0.47;;;;;;;29.58;48.26;100905.03;5067336;27;65701;-37
2022/01/23 15:29:17;;;;;;;1.35;0.50;;;;;;;29.54;48.53;100908.41;5073618;27;69515;-34
2022/01/23 15:31:47;;;;;;;1.63;0.55;;;;;;;29.49;47.66;100908.19;5077099;27;66282;-36